Terminal Aerodrome Forecast
Issued by NWS

Home | Current Version | Previous Version | Text Only | Print | Product List | Glossary On
Versions: 1 2 3 4 5 6 7 8 9 10 11 12 13 14 15 16 17 18
799
FTUS41 KCAR 270530
TAFPQI
TAF
KPQI 270530Z 2706/2806 17005KT P6SM OVC013
     FM271000 13008KT 6SM -SHRA OVC025
     FM271500 15011KT P6SM BKN008
     FM272000 17011KT P6SM BKN040
     FM280300 20006KT P6SM BKN010=

USA.gov is the U.S. government's official web portal to all federal, state and local government web resources and services.